createdAt,value
2022-08-26T15:24:00.179Z,53884.56
2022-08-26T15:26:29.834Z,53826.84
2022-08-26T15:28:58.384Z,53992.00
2022-08-26T15:31:31.487Z,53795.03
2022-08-26T15:34:07.548Z,53554.31
2022-08-26T15:36:37.739Z,53313.59
2022-08-26T15:39:07.330Z,52965.50
2022-08-26T15:41:35.048Z,52732.81
2022-08-26T15:44:03.821Z,52659.22
2022-08-26T15:46:32.103Z,52474.25
2022-08-26T15:49:00.148Z,52364.88
2022-08-26T15:51:31.894Z,52273.41
2022-08-26T15:53:59.895Z,52283.34
2022-08-26T15:56:31.186Z,52368.84
2022-08-26T15:59:00.409Z,52339.03
2022-08-26T16:01:28.822Z,52321.13
2022-08-26T16:03:56.849Z,52408.63
2022-08-26T16:06:31.768Z,52283.34
2022-08-26T16:08:58.941Z,52273.41
2022-08-26T16:11:27.437Z,52199.81
2022-08-26T16:13:55.146Z,52207.78
2022-08-26T16:16:22.547Z,52122.28
2022-08-26T16:18:49.982Z,52100.41
2022-08-26T16:21:25.029Z,52100.41
2022-08-26T16:23:52.498Z,52062.63
2022-08-26T16:26:27.255Z,52076.53
2022-08-26T16:28:54.888Z,52124.25
2022-08-26T16:31:22.389Z,52142.16
2022-08-26T16:33:49.729Z,52231.63
2022-08-26T16:36:19.140Z,52319.13
2022-08-26T16:38:55.175Z,52384.75
2022-08-26T16:41:25.165Z,52309.19
2022-08-26T16:43:52.961Z,52191.88
2022-08-26T16:46:22.220Z,52144.13
2022-08-26T16:48:49.557Z,52096.41
2022-08-26T16:51:24.382Z,52048.69
2022-08-26T16:53:52.460Z,52054.66
2022-08-26T16:56:33.626Z,52064.59
2022-08-26T16:59:07.002Z,52002.97
2022-08-26T17:01:34.618Z,51975.13
2022-08-26T17:04:01.773Z,51939.31
2022-08-26T17:06:29.786Z,51973.13
2022-08-26T17:08:57.085Z,51981.09
2022-08-26T17:11:24.403Z,52014.88
2022-08-26T17:13:51.555Z,52036.75
2022-08-26T17:16:20.429Z,51985.06
2022-08-26T17:18:49.394Z,51969.16
2022-08-26T17:21:16.974Z,51939.31
2022-08-26T17:23:44.688Z,51931.38
2022-08-26T17:26:12.617Z,51893.59
2022-08-26T17:28:39.984Z,51877.69
2022-08-26T17:31:09.446Z,51897.56
2022-08-26T17:33:37.777Z,51877.69
2022-08-26T17:36:07.080Z,51877.69
2022-08-26T17:38:35.047Z,51839.91
2022-08-26T17:41:02.143Z,51849.84
2022-08-26T17:43:29.303Z,51808.09
2022-08-26T17:46:07.223Z,51810.09
2022-08-26T17:48:36.846Z,51818.03
2022-08-26T17:51:13.749Z,51794.19
2022-08-26T17:53:41.849Z,51738.50
2022-08-26T17:56:13.063Z,51776.28
2022-08-26T17:58:40.865Z,51754.41
2022-08-26T18:01:15.550Z,51766.34
2022-08-26T18:03:42.938Z,51750.44
2022-08-26T18:06:12.242Z,51716.63
2022-08-26T18:08:40.949Z,51716.63
2022-08-26T18:11:20.714Z,51728.56
2022-08-26T18:13:48.221Z,51704.69
2022-08-26T18:16:18.778Z,51718.63
2022-08-26T18:18:48.733Z,51736.53
2022-08-26T18:21:26.525Z,51724.59
2022-08-26T18:23:55.077Z,51712.66
2022-08-26T18:26:36.319Z,51708.69
2022-08-26T18:29:04.789Z,51734.53
2022-08-26T18:31:32.454Z,51706.69
2022-08-26T18:34:01.648Z,51732.53
2022-08-26T18:36:34.684Z,51704.69
2022-08-26T18:39:04.800Z,51696.75
2022-08-26T18:41:38.405Z,51710.66
2022-08-26T18:44:05.471Z,51649.03
2022-08-26T18:46:32.706Z,51662.94
2022-08-26T18:48:59.979Z,51692.78
2022-08-26T18:51:31.047Z,51678.84
2022-08-26T18:54:00.538Z,51658.97
2022-08-26T18:56:28.653Z,51658.97
2022-08-26T18:58:55.780Z,51660.97
2022-08-26T19:01:27.213Z,51674.88
2022-08-26T19:03:59.441Z,51635.13
2022-08-26T19:06:32.777Z,51613.25
2022-08-26T19:09:00.700Z,51643.06
2022-08-26T19:11:31.821Z,51623.19
2022-08-26T19:14:06.581Z,51655.00
2022-08-26T19:16:34.251Z,51658.97
2022-08-26T19:19:02.071Z,51629.16
2022-08-26T19:21:30.073Z,51629.16
2022-08-26T19:24:00.313Z,51623.19
2022-08-26T19:26:28.730Z,51617.22
2022-08-26T19:28:56.699Z,51619.22
2022-08-26T19:31:24.057Z,51595.34
2022-08-26T19:33:51.301Z,51601.31
2022-08-26T19:36:22.519Z,51601.31
2022-08-26T19:38:51.034Z,51605.28
2022-08-26T19:41:31.663Z,51621.19
2022-08-26T19:44:35.201Z,51621.19
2022-08-26T19:47:03.746Z,51579.44
2022-08-26T19:49:32.029Z,51619.22
2022-08-26T19:51:59.461Z,51613.25
2022-08-26T19:54:27.185Z,51623.19
2022-08-26T19:56:54.627Z,51611.25
2022-08-26T19:59:21.802Z,51639.09
2022-08-26T20:01:55.181Z,51609.28
2022-08-26T20:04:31.145Z,51619.22
2022-08-26T20:07:00.690Z,51597.34
2022-08-26T20:09:34.130Z,51587.41
2022-08-26T20:12:03.057Z,51593.38
2022-08-26T20:14:30.634Z,51601.31
2022-08-26T20:16:58.225Z,51611.25
2022-08-26T20:19:44.158Z,51603.31
2022-08-26T20:22:12.900Z,51583.41
2022-08-26T20:24:40.437Z,51583.41
2022-08-26T20:27:08.206Z,51595.34
2022-08-26T20:29:36.667Z,51599.31
2022-08-26T20:32:06.105Z,51599.31
2022-08-26T20:34:34.899Z,51599.31
2022-08-26T20:37:02.784Z,51613.25
2022-08-26T20:39:30.080Z,51613.25
2022-08-26T20:41:58.113Z,51587.41
2022-08-26T20:44:25.796Z,51607.28
2022-08-26T20:46:53.040Z,51603.31
2022-08-26T20:49:20.189Z,51603.31
2022-08-26T20:51:52.510Z,51631.13
2022-08-26T20:54:26.201Z,51595.34
2022-08-26T20:56:57.272Z,51601.31
2022-08-26T20:59:25.375Z,51599.31
2022-08-26T21:01:53.188Z,51621.19
2022-08-26T21:04:23.553Z,51587.41
2022-08-26T21:06:52.671Z,51581.44
2022-08-26T21:09:23.008Z,51607.28
2022-08-26T21:11:51.498Z,51597.34
2022-08-26T21:14:20.670Z,51591.38
2022-08-26T21:16:47.896Z,51601.31
2022-08-26T21:19:18.333Z,51583.41
2022-08-26T21:21:47.858Z,51585.41
2022-08-26T21:24:15.343Z,51567.50
2022-08-26T21:26:42.799Z,51543.66
2022-08-26T21:29:10.159Z,51539.69
2022-08-26T21:31:43.531Z,51557.56
2022-08-26T21:34:14.229Z,51553.59
2022-08-26T21:36:41.960Z,51567.50
2022-08-26T21:39:12.067Z,51549.63
2022-08-26T21:41:41.523Z,51565.53
2022-08-26T21:44:10.162Z,51555.59
2022-08-26T21:46:37.422Z,51569.50
2022-08-26T21:49:08.861Z,51567.50
2022-08-26T21:51:46.052Z,51535.69
2022-08-26T21:54:14.073Z,51581.44
2022-08-26T21:56:47.132Z,51543.66
2022-08-26T21:59:17.927Z,51547.63
2022-08-26T22:01:45.795Z,51559.56
2022-08-26T22:04:13.595Z,51543.66
2022-08-26T22:06:47.949Z,51583.41
2022-08-26T22:09:19.575Z,51555.59
2022-08-26T22:11:47.602Z,51541.66
2022-08-26T22:14:16.162Z,51535.69
2022-08-26T22:16:46.840Z,51557.56
2022-08-26T22:19:20.116Z,51547.63
2022-08-26T22:21:51.955Z,51507.88
2022-08-26T22:24:22.474Z,51575.47
2022-08-26T22:26:50.065Z,51585.41
2022-08-26T22:29:18.838Z,51567.50
2022-08-26T22:31:46.526Z,51561.56
2022-08-26T22:34:17.246Z,51571.50
2022-08-26T22:36:48.953Z,51549.63
2022-08-26T22:39:21.213Z,51601.31
2022-08-26T22:41:49.643Z,51553.59
2022-08-26T22:44:18.371Z,51559.56
2022-08-26T22:46:46.995Z,51591.38
2022-08-26T22:49:18.000Z,51605.28
2022-08-26T22:51:46.637Z,51565.53
2022-08-26T22:54:15.194Z,51537.69
2022-08-26T22:56:44.683Z,51571.50
2022-08-26T22:59:13.055Z,51561.56
2022-08-26T23:01:42.688Z,51525.75
2022-08-26T23:04:11.096Z,51565.53
2022-08-26T23:06:43.072Z,51571.50
2022-08-26T23:09:11.158Z,51547.63
2022-08-26T23:11:39.865Z,51541.66
2022-08-26T23:14:10.193Z,51555.59
2022-08-26T23:16:41.551Z,51565.53
2022-08-26T23:19:12.952Z,51559.56
2022-08-26T23:21:40.403Z,51561.56
2022-08-26T23:24:08.564Z,51575.47
2022-08-26T23:26:36.910Z,51575.47
2022-08-26T23:29:06.524Z,51565.53
2022-08-26T23:31:34.035Z,51557.56
2022-08-26T23:34:19.665Z,51569.50
2022-08-26T23:36:47.374Z,51607.28
2022-08-26T23:39:15.394Z,51575.47
2022-08-26T23:41:42.843Z,51559.56
2022-08-26T23:44:13.160Z,51553.59
2022-08-26T23:46:40.353Z,51593.38
2022-08-26T23:49:07.419Z,51557.56
2022-08-26T23:51:53.242Z,51557.56
2022-08-26T23:54:20.569Z,51565.53
2022-08-26T23:56:47.695Z,51561.56
2022-08-26T23:59:15.597Z,51579.44
